Time;durP1;ratioP1;P1;durP2;ratioP2;P2;SDS_P1;SDS_P2;PMS_P1;PMS_P2;Temp;Humidity;BMP_temperature;BMP_pressure;BME280_temperature;BME280_humidity;BME280_pressure;Samples;Min_cycle;Max_cycle;Signal;HPM_P1;HPM_P2
2023/03/04 00:00:29;;;;;;;0.80;0.80;;;2.30;68.40;;;1.91;57.45;95093.84;5015201;28;20597;-18
2023/03/04 00:02:56;;;;;;;0.80;0.80;;;2.30;68.10;;;1.92;57.63;95100.66;5014421;28;20208;-18
2023/03/04 00:05:23;;;;;;;0.70;0.70;;;2.30;68.00;;;1.85;58.10;95082.25;5015385;28;20289;-18
2023/03/04 00:07:50;;;;;;;0.70;0.70;;;2.30;68.10;;;1.87;57.83;95084.72;5015357;28;20211;-18
2023/03/04 00:10:17;;;;;;;0.70;0.70;;;2.30;68.20;;;1.83;58.27;95080.75;5015548;28;20251;-19
2023/03/04 00:12:44;;;;;;;0.80;0.80;;;2.30;68.50;;;1.79;58.41;95076.81;5015490;28;20526;-19
2023/03/04 00:15:11;;;;;;;0.77;0.77;;;2.30;68.60;;;1.79;59.04;95085.38;4998231;28;20217;-18
2023/03/04 00:17:38;;;;;;;0.80;0.80;;;2.30;69.00;;;1.76;58.70;95078.69;5015425;28;20220;-18
2023/03/04 00:20:06;;;;;;;0.70;0.70;;;2.20;68.70;;;1.76;58.56;95077.88;5015421;28;20540;-18
2023/03/04 00:22:33;;;;;;;0.80;0.80;;;2.20;69.70;;;1.74;58.75;95078.00;5015383;28;20224;-18
2023/03/04 00:25:00;;;;;;;0.80;0.80;;;2.20;68.90;;;1.76;58.16;95077.88;5001544;28;20636;-18
2023/03/04 00:27:27;;;;;;;0.70;0.70;;;2.20;68.80;;;1.76;58.56;95073.53;5021667;28;20636;-18
2023/03/04 00:29:55;;;;;;;0.80;0.80;;;2.20;68.70;;;1.77;58.17;95071.78;5022134;28;20290;-18
2023/03/04 00:32:22;;;;;;;0.80;0.80;;;2.20;68.80;;;1.76;58.46;95070.13;5021601;28;20212;-18
2023/03/04 00:34:50;;;;;;;0.90;0.90;;;2.20;68.80;;;1.79;57.42;95072.44;5021495;28;20224;-18
2023/03/04 00:37:16;;;;;;;0.80;0.80;;;2.20;68.50;;;1.76;57.65;95078.69;5021421;28;20200;-18
2023/03/04 00:39:43;;;;;;;0.70;0.70;;;2.20;68.40;;;1.78;57.71;95077.75;5021837;28;20192;-18
2023/03/04 00:42:11;;;;;;;0.80;0.80;;;2.20;68.40;;;1.76;57.27;95068.34;5021768;28;20596;-18
2023/03/04 00:44:38;;;;;;;0.70;0.70;;;2.20;68.40;;;1.78;56.93;95059.66;5004406;28;20255;-18
2023/03/04 00:47:05;;;;;;;0.90;0.90;;;2.20;68.20;;;1.78;57.11;95070.78;5021411;28;20201;-18
2023/03/04 00:49:32;;;;;;;0.73;0.73;;;2.10;68.10;;;1.75;57.51;95063.31;5021423;28;20204;-18
2023/03/04 00:51:59;;;;;;;0.80;0.80;;;2.20;68.30;;;1.75;57.04;95058.94;5004160;28;20564;-18
2023/03/04 00:54:26;;;;;;;0.70;0.70;;;2.20;68.20;;;1.77;56.78;95051.09;5004124;28;20208;-18
2023/03/04 00:56:53;;;;;;;0.80;0.80;;;2.10;68.10;;;1.74;56.67;95046.16;5021283;28;20217;-18
2023/03/04 00:59:20;;;;;;;0.70;0.70;;;2.10;68.00;;;1.74;56.59;95038.41;5021356;28;20207;-18
2023/03/04 01:01:47;;;;;;;0.73;0.73;;;2.10;68.10;;;1.72;56.74;95040.31;4987974;28;20237;-18
2023/03/04 01:04:16;;;;;;;0.80;0.80;;;2.10;68.10;;;1.69;56.89;95031.06;5004176;28;20208;-18
2023/03/04 01:06:43;;;;;;;0.80;0.80;;;2.10;68.20;;;1.71;56.71;95036.06;5021436;28;20225;-18
2023/03/04 01:09:11;;;;;;;0.80;0.80;;;2.10;68.00;;;1.70;56.47;95024.94;5021265;28;20284;-18
2023/03/04 01:11:38;;;;;;;0.70;0.70;;;2.10;68.00;;;1.71;55.94;95023.16;5021239;28;20193;-18
2023/03/04 01:14:05;;;;;;;0.80;0.80;;;2.10;67.70;;;1.68;55.72;95021.66;5021790;28;20197;-18
2023/03/04 01:16:32;;;;;;;0.70;0.70;;;2.10;67.60;;;1.69;55.70;95020.72;5021119;28;20735;-20
2023/03/04 01:18:59;;;;;;;0.70;0.70;;;2.00;67.50;;;1.66;55.63;95021.00;5003898;28;20194;-18
2023/03/04 01:21:26;;;;;;;0.70;0.70;;;2.00;67.50;;;1.63;55.27;95020.44;5021438;28;20186;-18
2023/03/04 01:23:54;;;;;;;0.80;0.80;;;2.00;67.30;;;1.59;55.86;95015.53;5004049;28;20580;-18
2023/03/04 01:26:21;;;;;;;0.80;0.80;;;2.00;67.30;;;1.57;55.66;95012.25;5021020;28;20216;-18
2023/03/04 01:28:48;;;;;;;0.82;0.82;;;1.90;67.30;;;1.55;55.90;95019.34;5021095;28;20204;-18
2023/03/04 01:31:15;;;;;;;0.80;0.80;;;1.90;67.40;;;1.51;55.39;95017.16;5003773;28;20205;-18
2023/03/04 01:33:43;;;;;;;0.80;0.80;;;1.90;67.60;;;1.52;55.52;95013.63;4987727;28;20204;-18
2023/03/04 01:36:10;;;;;;;0.70;0.70;;;1.90;67.50;;;1.51;55.21;95006.81;5018353;28;20564;-18
2023/03/04 01:38:37;;;;;;;0.70;0.70;;;1.90;67.40;;;1.52;55.24;95005.88;5018480;28;20273;-18
2023/03/04 01:41:06;;;;;;;0.85;0.85;;;1.90;67.30;;;1.47;55.03;95006.25;5000545;28;20562;-18
2023/03/04 01:43:36;;;;;;;0.80;0.80;;;1.80;67.10;;;1.45;54.69;95002.97;5000955;28;20639;-20
2023/03/04 01:46:04;;;;;;;0.70;0.70;;;1.80;67.10;;;1.42;54.55;94996.31;5000351;28;20633;-18
2023/03/04 01:48:36;;;;;;;0.85;0.85;;;1.80;67.00;;;1.38;54.57;94994.13;5018009;28;20552;-21
2023/03/04 01:51:05;;;;;;;0.80;0.80;;;1.70;66.90;;;1.36;55.15;94985.69;5017777;28;20213;-18
2023/03/04 01:53:33;;;;;;;0.70;0.70;;;1.70;67.10;;;1.33;54.73;94986.78;5000546;28;20196;-18
2023/03/04 01:56:16;;;;;;;0.75;0.75;;;1.70;67.10;;;1.30;54.54;94994.00;5000076;28;20311;-21
2023/03/04 01:58:43;;;;;;;0.70;0.70;;;1.70;67.00;;;1.25;55.29;94987.44;5000331;28;20194;-18
2023/03/04 02:01:11;;;;;;;0.63;0.63;;;1.60;67.10;;;1.21;56.33;94990.41;5000332;28;20337;-18
2023/03/04 02:03:39;;;;;;;0.70;0.70;;;1.60;67.50;;;1.20;56.01;94986.22;5000031;28;20201;-18
2023/03/04 02:06:06;;;;;;;0.80;0.80;;;1.60;67.60;;;1.16;56.42;94980.50;5017420;28;20206;-18
2023/03/04 02:08:34;;;;;;;0.80;0.80;;;1.50;67.70;;;1.16;56.45;94979.66;5000846;28;20193;-18
2023/03/04 02:11:01;;;;;;;0.77;0.77;;;1.50;68.00;;;1.14;56.88;94971.25;4983954;28;20642;-18
2023/03/04 02:13:28;;;;;;;0.90;0.90;;;1.50;68.20;;;1.17;56.46;94966.59;4999887;28;20213;-18
2023/03/04 02:15:55;;;;;;;0.80;0.80;;;1.50;68.20;;;1.20;56.46;94968.94;5000469;28;20544;-18
2023/03/04 02:18:23;;;;;;;0.80;0.80;;;1.50;68.20;;;1.24;55.95;94967.72;4999939;28;20194;-18
2023/03/04 02:21:10;;;;;;;0.65;0.65;;;1.50;68.10;;;1.26;56.24;94968.41;4999894;28;20284;-18
2023/03/04 02:23:59;;;;;;;0.70;0.70;;;1.60;68.20;;;1.24;56.03;94954.78;5017116;28;20209;-18
2023/03/04 02:26:28;;;;;;;0.70;0.70;;;1.60;68.20;;;1.28;55.77;94952.75;4984173;28;20197;-18
2023/03/04 02:28:58;;;;;;;0.70;0.70;;;1.60;68.00;;;1.26;55.97;94954.69;4999725;28;20529;-18
2023/03/04 02:31:51;;;;;;;0.70;0.70;;;1.60;67.90;;;1.27;55.45;94949.38;4999715;28;20189;-18
2023/03/04 02:34:30;;;;;;;0.70;0.70;;;1.60;67.70;;;1.24;55.79;94944.47;5016816;28;20207;-18
2023/03/04 02:36:58;;;;;;;0.80;0.80;;;1.60;67.70;;;1.24;55.93;94943.66;4999551;28;20687;-18
2023/03/04 02:39:34;;;;;;;0.70;0.70;;;1.60;67.70;;;1.21;55.81;94943.91;4999639;28;20228;-18
2023/03/04 02:42:03;;;;;;;0.70;0.70;;;1.60;67.80;;;1.22;55.65;94938.63;4999445;28;20213;-18
2023/03/04 02:44:36;;;;;;;0.70;0.70;;;1.60;67.70;;;1.19;55.92;94935.50;4999238;28;20547;-18
2023/03/04 02:47:06;;;;;;;0.80;0.80;;;1.60;67.80;;;1.20;55.62;94935.34;4999264;28;20570;-18
2023/03/04 02:49:36;;;;;;;0.70;0.70;;;1.50;67.80;;;1.18;56.02;94933.84;4999394;28;20213;-18
2023/03/04 02:52:16;;;;;;;0.77;0.77;;;1.50;67.90;;;1.17;55.86;94921.88;5016558;28;20202;-18
2023/03/04 02:54:43;;;;;;;0.80;0.80;;;1.50;67.90;;;1.16;55.84;94928.00;4983059;28;20296;-18
2023/03/04 02:57:13;;;;;;;0.70;0.70;;;1.50;67.80;;;1.16;55.41;94923.66;4999109;28;20621;-18
2023/03/04 02:59:42;;;;;;;0.70;0.70;;;1.50;67.80;;;1.16;54.85;94926.25;4999165;28;20190;-18
2023/03/04 03:02:14;;;;;;;0.70;0.70;;;1.50;67.60;;;1.16;55.22;94921.06;5012037;28;20264;-18
2023/03/04 03:04:42;;;;;;;0.70;0.70;;;1.50;67.60;;;1.10;55.34;94919.84;4996516;28;20534;-18
2023/03/04 03:07:12;;;;;;;0.80;0.80;;;1.50;67.60;;;1.05;55.71;94910.84;4964758;28;20186;-18
2023/03/04 03:09:40;;;;;;;0.70;0.70;;;1.50;67.70;;;1.05;56.60;94918.59;4995698;28;20256;-18
2023/03/04 03:12:07;;;;;;;0.70;0.70;;;1.40;67.80;;;1.00;56.48;94907.84;4996608;28;20210;-18
2023/03/04 03:14:34;;;;;;;0.80;0.80;;;1.40;68.00;;;1.00;57.15;94913.84;4995442;28;20210;-18
2023/03/04 03:17:03;;;;;;;0.80;0.80;;;1.40;68.50;;;0.98;56.66;94910.56;4996423;28;20210;-18
2023/03/04 03:19:30;;;;;;;0.70;0.70;;;1.40;68.30;;;0.99;57.03;94907.03;4995522;28;20202;-18
2023/03/04 03:21:59;;;;;;;0.80;0.80;;;1.40;68.60;;;1.00;57.06;94906.09;4995474;28;20209;-18
2023/03/04 03:24:26;;;;;;;0.90;0.90;;;1.40;68.60;;;1.00;56.61;94903.50;4995267;28;20284;-17
2023/03/04 03:26:54;;;;;;;0.80;0.80;;;1.40;68.60;;;1.02;56.86;94893.03;4995364;28;20202;-18
2023/03/04 03:29:21;;;;;;;0.90;0.90;;;1.40;68.50;;;1.04;56.58;94891.97;4996263;28;20194;-18
2023/03/04 03:31:48;;;;;;;0.73;0.73;;;1.40;68.40;;;1.07;56.58;94890.88;4995298;28;20206;-18
2023/03/04 03:34:16;;;;;;;0.80;0.80;;;1.40;68.60;;;1.07;56.58;94888.28;4995221;28;20202;-18
2023/03/04 03:36:43;;;;;;;0.70;0.70;;;1.40;68.60;;;1.08;56.72;94892.50;4995438;28;20228;-18
2023/03/04 03:39:10;;;;;;;0.70;0.70;;;1.50;68.70;;;1.09;56.44;94878.66;4995192;28;20260;-18
2023/03/04 03:41:38;;;;;;;0.70;0.70;;;1.50;68.60;;;1.08;56.60;94888.16;4996109;28;20186;-18
2023/03/04 03:44:04;;;;;;;0.70;0.70;;;1.50;68.90;;;1.10;57.06;94880.28;4995881;28;20190;-18
2023/03/04 03:46:31;;;;;;;0.70;0.70;;;1.50;68.80;;;1.11;57.04;94880.13;4996019;28;20280;-18
2023/03/04 03:48:59;;;;;;;0.80;0.80;;;1.50;68.80;;;1.10;57.32;94875.13;4996008;28;20194;-18
2023/03/04 03:51:26;;;;;;;0.75;0.75;;;1.50;68.90;;;1.12;57.26;94880.94;4996460;28;20199;-19
2023/03/04 03:53:53;;;;;;;0.90;0.90;;;1.50;69.00;;;1.18;56.81;94871.84;4995849;28;20198;-18
2023/03/04 03:56:20;;;;;;;0.80;0.80;;;1.50;68.90;;;1.17;57.62;94867.63;4996058;28;20214;-18
2023/03/04 03:58:47;;;;;;;0.80;0.80;;;1.50;69.20;;;1.20;56.91;94867.38;4995330;28;20531;-18
2023/03/04 04:01:14;;;;;;;0.80;0.80;;;1.50;69.10;;;1.24;57.04;94869.53;5006701;28;20288;-18
2023/03/04 04:03:42;;;;;;;0.77;0.77;;;1.60;69.00;;;1.25;56.61;94868.59;5015350;28;20197;-18
2023/03/04 04:06:09;;;;;;;0.70;0.70;;;1.60;68.80;;;1.27;55.98;94873.63;5015452;28;20201;-18
2023/03/04 04:08:36;;;;;;;0.70;0.70;;;1.60;68.50;;;1.20;56.93;94870.75;5015344;28;20208;-18
2023/03/04 04:11:03;;;;;;;0.70;0.70;;;1.60;68.90;;;1.22;57.25;94874.03;5015314;28;20641;-18
2023/03/04 04:13:30;;;;;;;0.70;0.70;;;1.60;70.00;;;1.17;58.13;94865.03;5015227;28;20664;-18
2023/03/04 04:15:58;;;;;;;0.80;0.80;;;1.60;69.60;;;1.19;58.43;94869.13;5015029;28;20209;-18
2023/03/04 04:18:25;;;;;;;0.90;0.90;;;1.60;70.00;;;1.17;58.71;94865.84;5015440;28;20281;-17
2023/03/04 04:20:53;;;;;;;0.70;0.70;;;1.60;70.00;;;1.17;59.09;94863.28;5015479;28;20255;-18
2023/03/04 04:23:20;;;;;;;0.80;0.80;;;1.50;69.90;;;1.21;58.89;94866.41;5015438;28;20644;-18
2023/03/04 04:25:47;;;;;;;0.70;0.70;;;1.60;70.00;;;1.20;59.57;94859.63;5015031;28;20200;-18
2023/03/04 04:28:14;;;;;;;0.80;0.80;;;1.60;70.50;;;1.19;60.33;94858.78;5015156;28;20197;-18
2023/03/04 04:30:41;;;;;;;0.65;0.65;;;1.60;70.90;;;1.19;60.17;94850.25;5015121;28;20621;-18
2023/03/04 04:33:09;;;;;;;0.80;0.80;;;1.60;70.90;;;1.22;61.10;94860.28;4997977;28;20198;-17
2023/03/04 04:35:37;;;;;;;0.70;0.70;;;1.60;71.50;;;1.23;61.14;94849.00;4997621;28;20209;-18
2023/03/04 04:38:06;;;;;;;0.75;0.75;;;1.60;71.60;;;1.29;61.25;94853.63;5015229;28;20221;-18
2023/03/04 04:40:33;;;;;;;0.70;0.70;;;1.60;71.90;;;1.30;61.30;94849.28;4997713;28;20212;-18
2023/03/04 04:43:00;;;;;;;0.90;0.90;;;1.60;71.90;;;1.33;61.96;94849.84;5014956;28;20197;-18
2023/03/04 04:45:27;;;;;;;0.80;0.80;;;1.70;72.30;;;1.32;62.04;94843.03;4981708;28;20228;-18
2023/03/04 04:47:56;;;;;;;0.70;0.70;;;1.70;72.40;;;1.35;61.66;94842.75;5015014;28;20267;-18
2023/03/04 04:50:26;;;;;;;0.70;0.70;;;1.70;72.50;;;1.39;62.02;94840.69;4998405;28;20216;-17
2023/03/04 04:52:54;;;;;;;0.70;0.70;;;1.70;73.60;;;1.41;62.38;94855.13;5015162;28;20569;-18
2023/03/04 04:55:20;;;;;;;0.70;0.70;;;1.70;73.00;;;1.40;62.61;94845.75;5014871;28;20201;-18
2023/03/04 04:57:47;;;;;;;0.60;0.60;;;1.80;73.20;;;1.40;62.57;94834.59;5014998;28;20292;-18
2023/03/04 05:00:17;;;;;;;0.90;0.90;;;1.80;73.20;;;1.44;62.30;94846.28;4981341;28;20244;-18
2023/03/04 05:02:44;;;;;;;0.80;0.80;;;1.80;73.20;;;1.47;62.33;94840.84;5015094;28;20182;-18
2023/03/04 05:05:12;;;;;;;0.90;0.90;;;1.80;73.10;;;1.49;62.35;94849.28;5015048;28;20259;-18
2023/03/04 05:07:39;;;;;;;0.70;0.70;;;1.80;73.10;;;1.47;62.68;94851.19;5014704;28;20205;-18
2023/03/04 05:10:06;;;;;;;0.70;0.70;;;1.80;73.20;;;1.52;63.06;94843.03;4981393;28;20206;-18
2023/03/04 05:12:33;;;;;;;0.80;0.80;;;1.90;73.60;;;1.49;63.28;94846.69;5017457;28;20236;-18
2023/03/04 05:15:00;;;;;;;0.70;0.70;;;1.90;73.90;;;1.53;63.37;94840.28;5018249;28;20198;-18
2023/03/04 05:17:27;;;;;;;0.80;0.80;;;1.90;73.90;;;1.54;63.91;94841.94;5018622;28;20531;-19
2023/03/04 05:19:54;;;;;;;0.73;0.73;;;1.90;74.30;;;1.52;63.84;94840.44;5018617;28;20216;-18
2023/03/04 05:22:21;;;;;;;0.60;0.60;;;1.90;74.20;;;1.55;64.03;94835.81;5018260;28;20197;-18
2023/03/04 05:24:48;;;;;;;0.90;0.90;;;1.90;74.30;;;1.57;64.71;94844.22;5018069;28;20205;-18
2023/03/04 05:27:16;;;;;;;0.80;0.80;;;1.90;75.00;;;1.58;64.75;94845.84;5002381;28;20264;-18
2023/03/04 05:29:45;;;;;;;0.80;0.80;;;1.90;75.20;;;1.58;65.11;94845.06;5018669;28;20197;-17
2023/03/04 05:32:12;;;;;;;0.80;0.80;;;1.90;75.30;;;1.64;65.02;94848.88;5018082;28;20229;-18
2023/03/04 05:34:39;;;;;;;0.63;0.63;;;1.90;75.60;;;1.67;64.93;94851.16;5017909;28;20225;-18
2023/03/04 05:37:06;;;;;;;0.70;0.70;;;1.90;75.50;;;1.70;64.78;94843.13;5001039;28;20221;-19
2023/03/04 05:39:34;;;;;;;0.80;0.80;;;2.00;75.30;;;1.74;64.74;94849.66;5018194;28;20204;-18
2023/03/04 05:42:01;;;;;;;0.80;0.80;;;2.10;75.40;;;1.76;64.46;94845.16;5017910;28;20189;-18
2023/03/04 05:44:28;;;;;;;0.70;0.70;;;2.10;75.30;;;1.77;64.29;94844.22;5017859;28;20253;-18
2023/03/04 05:46:55;;;;;;;0.70;0.70;;;2.10;75.00;;;1.80;64.81;94848.28;5018024;28;20201;-18
2023/03/04 05:49:22;;;;;;;0.70;0.70;;;2.10;75.20;;;1.84;64.71;94842.69;5017892;28;20204;-17
2023/03/04 05:51:49;;;;;;;0.80;0.80;;;2.10;75.30;;;1.82;64.68;94843.78;5017936;28;20201;-17
2023/03/04 05:54:16;;;;;;;0.70;0.70;;;2.20;75.50;;;1.87;65.09;94852.75;5018025;28;20276;-18
2023/03/04 05:56:44;;;;;;;0.70;0.70;;;2.20;75.80;;;1.88;64.80;94841.47;5017494;28;20209;-18
2023/03/04 05:59:11;;;;;;;0.70;0.70;;;2.20;75.70;;;1.97;64.79;94847.56;4984742;28;20202;-18
2023/03/04 06:01:38;;;;;;;0.70;0.70;;;2.20;75.60;;;2.02;64.57;94849.72;5017530;28;20233;-20
2023/03/04 06:04:05;;;;;;;0.68;0.68;;;2.30;76.50;;;2.01;64.78;94840.34;5017541;28;20185;-18
2023/03/04 06:06:32;;;;;;;0.80;0.80;;;2.40;75.80;;;2.06;64.53;94835.53;5017598;28;20535;-17
2023/03/04 06:09:00;;;;;;;0.70;0.70;;;2.40;75.60;;;2.11;64.35;94848.88;5017689;28;20197;-17
2023/03/04 06:11:26;;;;;;;0.70;0.70;;;2.50;75.60;;;2.16;64.77;94841.53;5000213;28;20205;-18
2023/03/04 06:13:53;;;;;;;0.80;0.80;;;2.50;75.70;;;2.18;64.66;94843.97;5018135;28;20219;-18
2023/03/04 06:16:21;;;;;;;0.70;0.70;;;2.50;75.60;;;2.25;64.87;94852.78;5000246;28;20564;-18
2023/03/04 06:18:48;;;;;;;0.60;0.60;;;2.60;75.90;;;2.30;64.46;94845.41;5017308;28;20194;-18
2023/03/04 06:21:15;;;;;;;0.70;0.70;;;2.60;75.70;;;2.37;64.44;94843.88;4984750;28;20189;-29
2023/03/04 06:23:44;;;;;;;0.60;0.60;;;2.70;75.60;;;2.40;64.20;94843.59;5017568;28;20198;-18
2023/03/04 06:26:14;;;;;;;0.80;0.80;;;2.70;75.60;;;2.42;64.15;94846.03;4984847;28;20645;-18
2023/03/04 06:28:42;;;;;;;0.80;0.80;;;2.80;75.60;;;2.46;64.25;94852.56;5017730;28;20634;-19
2023/03/04 06:31:09;;;;;;;0.80;0.80;;;2.80;75.50;;;2.55;63.83;94848.28;5017379;28;20252;-18
2023/03/04 06:33:37;;;;;;;0.80;0.80;;;2.90;75.60;;;2.60;63.74;94845.28;5017123;28;20189;-18
2023/03/04 06:36:04;;;;;;;0.80;0.80;;;2.90;75.40;;;2.63;63.34;94850.97;5017271;28;20193;-18
2023/03/04 06:38:31;;;;;;;0.80;0.80;;;2.90;75.40;;;2.66;63.61;94850.69;5017504;28;20239;-18
2023/03/04 06:41:07;;;;;;;0.80;0.80;;;3.00;75.30;;;2.72;63.51;94846.69;5017073;28;20193;-18
2023/03/04 06:43:34;;;;;;;0.80;0.80;;;3.10;75.40;;;2.79;63.45;94844.34;5017161;28;20209;-18
2023/03/04 06:46:02;;;;;;;0.80;0.80;;;3.10;75.20;;;2.86;63.48;94853.19;4999676;28;20621;-18
2023/03/04 06:48:29;;;;;;;0.70;0.70;;;3.20;75.30;;;2.91;63.19;94850.16;5016913;28;20193;-18
2023/03/04 06:50:56;;;;;;;0.70;0.70;;;3.20;75.10;;;2.98;62.92;94853.78;4999683;28;20201;-18
2023/03/04 06:53:23;;;;;;;0.70;0.70;;;3.30;75.00;;;3.06;62.57;94853.06;5017025;28;20205;-18
2023/03/04 06:55:50;;;;;;;0.65;0.65;;;3.30;75.00;;;3.09;62.40;94851.00;5016852;28;20259;-32
2023/03/04 06:58:17;;;;;;;0.80;0.80;;;3.40;74.80;;;3.11;62.03;94838.69;5016647;28;20257;-23
2023/03/04 07:00:44;;;;;;;0.60;0.60;;;3.50;74.70;;;3.22;61.53;94844.63;5016495;28;20291;-18
2023/03/04 07:03:12;;;;;;;0.70;0.70;;;3.50;75.30;;;3.28;61.55;94854.41;4999552;28;20284;-18
2023/03/04 07:05:39;;;;;;;0.70;0.70;;;3.60;74.30;;;3.36;60.82;94842.31;5016438;28;20247;-18
2023/03/04 07:08:06;;;;;;;0.70;0.70;;;3.70;74.00;;;3.39;60.34;94836.00;5016728;28;20198;-18
2023/03/04 07:10:33;;;;;;;0.80;0.80;;;3.70;73.80;;;3.47;60.14;94835.28;5016521;28;20197;-18
2023/03/04 07:13:00;;;;;;;0.80;0.80;;;3.80;73.70;;;3.55;60.42;94848.28;5017083;28;20280;-18
2023/03/04 07:15:28;;;;;;;0.70;0.70;;;3.80;73.50;;;3.64;60.08;94844.00;4999145;28;20687;-20
2023/03/04 07:17:55;;;;;;;0.70;0.70;;;3.90;73.50;;;3.65;59.72;94848.22;5016647;28;20657;-18
2023/03/04 07:20:22;;;;;;;0.80;0.80;;;3.90;73.30;;;3.69;59.83;94836.59;5016262;28;20200;-19
2023/03/04 07:22:49;;;;;;;0.70;0.70;;;4.00;73.10;;;3.78;59.16;94847.84;5016245;28;20189;-18
2023/03/04 07:25:16;;;;;;;0.60;0.60;;;4.00;73.00;;;3.84;59.00;94842.03;4999406;28;20194;-19
2023/03/04 07:27:43;;;;;;;0.70;0.70;;;4.10;72.80;;;3.85;59.02;94873.00;5016542;28;20194;-18
2023/03/04 07:30:11;;;;;;;0.70;0.70;;;4.20;72.80;;;3.93;58.78;94851.50;5016000;28;20629;-19
2023/03/04 07:32:38;;;;;;;0.63;0.63;;;4.20;72.60;;;4.05;57.81;94861.63;5016315;28;20580;-18
2023/03/04 07:35:06;;;;;;;0.80;0.80;;;4.30;71.90;;;4.11;57.50;94856.66;4997998;28;20213;-18
2023/03/04 07:37:33;;;;;;;0.65;0.65;;;4.40;71.90;;;4.20;57.94;94873.09;5015987;28;20316;-18
2023/03/04 07:40:00;;;;;;;0.80;0.80;;;4.50;72.00;;;4.28;57.16;94867.13;5015890;28;20198;-18
2023/03/04 07:42:27;;;;;;;0.70;0.70;;;4.50;72.00;;;4.41;56.93;94869.31;5015818;28;20272;-19
2023/03/04 07:45:04;;;;;;;0.80;0.80;;;4.70;71.90;;;4.52;56.38;94881.19;4998635;28;20284;-18
2023/03/04 07:47:31;;;;;;;0.60;0.60;;;4.70;71.50;;;4.53;56.52;94881.06;5015646;28;20221;-18
2023/03/04 07:49:58;;;;;;;0.80;0.80;;;4.80;71.20;;;4.58;56.66;94884.00;5015845;28;20197;-18
2023/03/04 07:52:25;;;;;;;0.60;0.60;;;4.90;71.40;;;4.65;56.47;94886.78;5016027;28;20197;-18
2023/03/04 07:54:52;;;;;;;0.80;0.80;;;4.90;71.30;;;4.68;56.19;94878.69;5015840;28;20579;-18
2023/03/04 07:57:19;;;;;;;0.70;0.70;;;5.00;71.10;;;4.80;55.72;94887.03;5015664;28;20224;-18
2023/03/04 07:59:46;;;;;;;0.70;0.70;;;5.10;70.90;;;4.82;56.30;94890.25;5015665;28;20212;-18
2023/03/04 08:02:14;;;;;;;0.80;0.80;;;5.10;70.90;;;4.86;56.35;94891.59;5015552;28;20233;-18
2023/03/04 08:04:41;;;;;;;0.70;0.70;;;5.20;70.90;;;5.01;56.37;94891.78;5015737;28;20296;-18
2023/03/04 08:07:08;;;;;;;0.70;0.70;;;5.30;71.00;;;5.12;54.93;94888.09;5004448;28;20206;-19
2023/03/04 08:09:35;;;;;;;0.60;0.60;;;5.40;70.30;;;5.15;54.67;94889.56;4995664;28;20629;-18
2023/03/04 08:12:02;;;;;;;0.60;0.60;;;5.40;69.80;;;5.17;54.28;94883.22;5009649;28;20228;-19
2023/03/04 08:14:29;;;;;;;0.70;0.70;;;5.50;69.70;;;5.19;53.00;94886.50;5015422;28;20201;-22
2023/03/04 08:16:56;;;;;;;0.70;0.70;;;5.50;68.90;;;5.21;53.02;94886.31;5013570;28;20221;-18
2023/03/04 08:19:23;;;;;;;0.65;0.65;;;5.50;68.80;;;5.29;52.17;94894.16;4962941;28;20194;-19
2023/03/04 08:21:51;;;;;;;0.70;0.70;;;5.60;68.40;;;5.33;51.16;94897.25;4995678;28;20205;-18
2023/03/04 08:24:18;;;;;;;0.60;0.60;;;5.70;67.50;;;5.31;50.16;94889.59;4995845;28;20194;-18
2023/03/04 08:26:49;;;;;;;0.50;0.50;;;5.70;66.90;;;5.33;49.35;94897.25;4995342;28;20618;-18
2023/03/04 08:29:20;;;;;;;0.80;0.80;;;5.70;66.50;;;5.34;49.51;94902.28;4996012;28;20190;-19
2023/03/04 08:31:51;;;;;;;0.60;0.60;;;5.70;66.40;;;5.39;50.13;94909.59;4995531;28;20209;-18
2023/03/04 08:34:21;;;;;;;0.70;0.70;;;5.70;66.70;;;5.48;49.86;94911.25;5008341;28;20223;-18
2023/03/04 08:36:48;;;;;;;0.70;0.70;;;5.80;66.50;;;5.53;49.03;94913.34;5014263;28;20546;-18
2023/03/04 08:39:17;;;;;;;0.70;0.70;;;5.90;66.00;;;5.55;48.20;94916.63;5000805;28;20380;-25
2023/03/04 08:41:45;;;;;;;0.70;0.70;;;6.00;65.50;;;5.52;47.88;94922.16;4995673;28;20237;-19
2023/03/04 08:44:13;;;;;;;0.50;0.50;;;6.00;65.90;;;5.54;47.55;94928.00;4995426;28;20194;-18
2023/03/04 08:46:42;;;;;;;0.60;0.60;;;5.90;64.90;;;5.50;47.80;94911.91;4998656;28;20652;-19
2023/03/04 08:49:11;;;;;;;0.60;0.60;;;5.90;64.90;;;5.50;48.50;94913.69;5002005;28;20633;-18
2023/03/04 08:51:38;;;;;;;0.60;0.60;;;5.90;65.30;;;5.56;47.80;94906.06;5019117;28;20646;-20
2023/03/04 08:54:05;;;;;;;0.70;0.70;;;5.90;64.80;;;5.57;46.63;94905.06;5001899;28;20203;-18
2023/03/04 08:56:33;;;;;;;0.60;0.60;;;6.00;64.00;;;5.58;47.24;94904.09;5019485;28;20352;-18
2023/03/04 08:59:00;;;;;;;0.60;0.60;;;6.00;64.40;;;5.63;47.34;94902.81;5018690;28;20228;-18
2023/03/04 09:01:27;;;;;;;0.50;0.50;;;6.00;64.50;;;5.65;47.71;94908.66;5001335;28;20237;-19
2023/03/04 09:03:54;;;;;;;0.80;0.80;;;6.10;64.70;;;5.72;46.97;94899.25;5018850;28;20225;-18
2023/03/04 09:06:21;;;;;;;0.70;0.70;;;6.10;64.30;;;5.80;47.62;94895.81;5004875;28;20202;-18
2023/03/04 09:08:48;;;;;;;0.50;0.50;;;6.20;64.60;;;5.89;46.84;94905.25;5000027;28;20521;-18
2023/03/04 09:11:15;;;;;;;0.60;0.60;;;6.20;63.90;;;5.88;46.69;94896.66;5018484;28;20277;-18
2023/03/04 09:13:43;;;;;;;0.70;0.70;;;6.30;63.90;;;5.95;45.88;94906.41;5016548;28;20289;-18
2023/03/04 09:16:12;;;;;;;0.50;0.50;;;6.30;63.60;;;5.97;45.71;94897.47;5015627;28;20201;-18
2023/03/04 09:18:41;;;;;;;0.60;0.60;;;6.40;63.50;;;6.02;45.90;94905.63;5019175;28;20589;-18
2023/03/04 09:21:09;;;;;;;0.70;0.70;;;6.40;63.60;;;6.03;46.65;94896.00;5018339;28;20204;-19
2023/03/04 09:23:36;;;;;;;0.80;0.80;;;6.40;63.60;;;6.07;45.69;94903.34;5018491;28;20220;-18
2023/03/04 09:26:24;;;;;;;0.80;0.80;;;6.40;63.20;;;6.19;46.70;94901.22;5018193;28;20193;-19
2023/03/04 09:28:54;;;;;;;0.50;0.50;;;6.50;63.80;;;6.25;44.16;94903.16;5018734;28;20188;-18
2023/03/04 09:31:21;;;;;;;0.80;0.80;;;6.60;62.50;;;6.34;44.94;94900.53;5001799;28;20189;-18
2023/03/04 09:33:50;;;;;;;0.80;0.80;;;6.60;63.00;;;6.44;44.70;94908.97;5001120;28;20200;-18
2023/03/04 09:36:17;;;;;;;0.60;0.60;;;6.70;62.50;;;6.51;43.87;94903.94;5018444;28;20531;-19
2023/03/04 09:38:45;;;;;;;0.60;0.60;;;6.80;62.20;;;6.55;44.66;94897.41;5000944;28;20221;-19
2023/03/04 09:41:36;;;;;;;0.60;0.60;;;6.90;62.50;;;6.64;44.50;94895.56;5017902;28;20194;-19
2023/03/04 09:44:15;;;;;;;0.60;0.60;;;6.90;62.50;;;6.70;44.23;94887.91;5017882;28;20191;-19
2023/03/04 09:46:44;;;;;;;0.60;0.60;;;7.00;62.10;;;6.73;44.18;94887.56;5018194;28;20190;-19
2023/03/04 09:49:13;;;;;;;0.60;0.60;;;7.10;62.10;;;6.81;43.27;94876.31;5017062;28;20193;-18
2023/03/04 09:52:02;;;;;;;0.60;0.60;;;7.20;61.60;;;6.84;42.89;94881.16;4992391;28;20206;-19
2023/03/04 09:55:14;;;;;;;0.70;0.70;;;7.20;61.40;;;6.86;42.47;94866.19;4998440;28;20205;-19
2023/03/04 09:58:34;;;;;;;0.60;0.60;;;7.20;61.10;;;6.91;42.97;94863.06;5003931;28;20233;-19
2023/03/04 10:01:37;;;;;;;0.70;0.70;;;7.20;61.20;;;7.00;42.21;94869.06;5005768;28;20221;-19
2023/03/04 10:04:18;;;;;;;0.60;0.60;;;7.30;60.70;;;7.07;42.07;94867.38;5016871;28;20200;-19
2023/03/04 10:06:53;;;;;;;0.60;0.60;;;7.40;60.70;;;7.17;41.39;94861.94;5007905;28;20202;-19
2023/03/04 10:09:59;;;;;;;0.70;0.70;;;7.50;60.00;;;7.21;41.66;94853.63;5003316;28;20193;-19
2023/03/04 10:12:30;;;;;;;0.60;0.60;;;7.50;60.20;;;7.25;42.12;94850.66;5000359;28;20201;-19
2023/03/04 10:15:17;;;;;;;0.70;0.70;;;7.60;60.50;;;7.26;41.63;94854.88;4999960;28;20201;-17
2023/03/04 10:17:50;;;;;;;0.60;0.60;;;7.60;60.10;;;7.30;41.73;94850.94;4997911;28;20205;-17
2023/03/04 10:20:30;;;;;;;0.70;0.70;;;7.60;60.00;;;7.34;41.87;94857.47;4996815;28;20193;-17
2023/03/04 10:23:08;;;;;;;0.80;0.80;;;7.60;60.30;;;7.42;41.65;94851.34;4984289;28;20185;-19
2023/03/04 10:25:45;;;;;;;0.60;0.60;;;7.70;60.20;;;7.51;42.56;94842.50;5000539;28;20198;-17
2023/03/04 10:28:17;;;;;;;0.68;0.68;;;7.80;60.60;;;7.62;42.63;94849.13;5017139;28;20192;-17
2023/03/04 10:31:01;;;;;;;0.60;0.60;;;7.90;60.70;;;7.75;41.84;94851.13;5004557;28;20221;-18
2023/03/04 10:33:34;;;;;;;0.60;0.60;;;8.00;60.60;;;7.74;41.52;94844.28;4998137;28;20187;-17
2023/03/04 10:36:23;;;;;;;0.60;0.60;;;8.10;60.00;;;7.78;41.72;94841.13;5001419;28;20207;-18
2023/03/04 10:39:30;;;;;;;0.60;0.60;;;8.10;59.90;;;7.81;41.80;94842.56;4999681;28;20215;-17
2023/03/04 10:42:04;;;;;;;0.70;0.70;;;8.10;60.10;;;7.84;41.77;94847.47;5011866;28;20505;-17